Time,TemperatureF,DewpointF,PressureIn,WindDirection,WindDirectionDegrees,WindSpeedMPH,WindSpeedGustMPH,Humidity,HourlyPrecipIn,Conditions,Clouds,dailyrainin,SolarRadiationWatts/m^2,SoftwareType,DateUTC
2013-11-12 00:00:00,63.2,59.6,30.16,East,90,0.0,0.0,88,0.00,,,0.00,0.00,VWS V14.00,2013-11-12 06:00:00,
2013-11-12 00:15:00,62.1,58.5,30.15,East,90,0.0,0.0,88,0.00,,,0.00,0.00,VWS V14.00,2013-11-12 06:15:00,
2013-11-12 00:30:00,61.3,58.0,30.15,East,90,0.0,0.0,89,0.00,,,0.00,0.00,VWS V14.00,2013-11-12 06:30:00,
2013-11-12 00:45:00,60.8,57.5,30.15,East,90,0.0,1.0,89,0.00,,,0.00,0.00,VWS V14.00,2013-11-12 06:45:00,
2013-11-12 01:00:00,60.5,57.2,30.15,East,90,0.0,0.0,89,0.00,,,0.00,0.00,VWS V14.00,2013-11-12 07:00:00,
2013-11-12 01:15:00,60.4,57.5,30.15,East,90,0.0,0.0,90,0.00,,,0.00,0.00,VWS V14.00,2013-11-12 07:15:00,
2013-11-12 01:30:00,60.3,57.4,30.15,East,90,0.0,0.0,90,0.00,,,0.00,0.00,VWS V14.00,2013-11-12 07:30:00,
2013-11-12 01:45:00,60.5,57.6,30.16,East,90,0.0,3.0,90,0.00,,,0.00,0.00,VWS V14.00,2013-11-12 07:45:00,
2013-11-12 02:00:00,60.7,57.4,30.15,NE,45,1.0,4.0,89,0.00,,,0.00,0.00,VWS V14.00,2013-11-12 08:00:00,
2013-11-12 02:15:00,60.5,56.9,30.16,North,0,1.0,4.0,88,0.00,,,0.00,0.00,VWS V14.00,2013-11-12 08:15:00,
2013-11-12 02:30:00,60.4,56.8,30.16,North,0,1.0,4.0,88,0.00,,,0.00,0.00,VWS V14.00,2013-11-12 08:30:00,
2013-11-12 02:45:00,60.1,56.2,30.16,NNW,338,1.0,4.0,87,0.00,,,0.00,0.00,VWS V14.00,2013-11-12 08:45:00,
2013-11-12 03:00:00,60.3,56.4,30.16,North,0,1.0,4.0,87,0.00,,,0.00,0.00,VWS V14.00,2013-11-12 09:00:00,
2013-11-12 03:15:00,60.2,56.3,30.17,North,0,1.0,5.0,87,0.00,,,0.00,0.00,VWS V14.00,2013-11-12 09:15:00,
2013-11-12 03:30:00,59.9,56.0,30.17,North,0,0.0,5.0,87,0.00,,,0.00,0.00,VWS V14.00,2013-11-12 09:30:00,
2013-11-12 03:45:00,59.8,56.2,30.17,North,0,0.0,2.0,88,0.00,,,0.00,0.00,VWS V14.00,2013-11-12 09:45:00,
2013-11-12 04:00:00,59.8,56.2,30.17,North,0,1.0,4.0,88,0.00,,,0.00,0.00,VWS V14.00,2013-11-12 10:00:00,
2013-11-12 04:15:00,60.4,56.8,30.18,NNE,22,1.0,5.0,88,0.00,,,0.00,0.00,VWS V14.00,2013-11-12 10:15:00,
2013-11-12 04:30:00,60.0,56.1,30.18,NNE,22,1.0,3.0,87,0.00,,,0.00,0.00,VWS V14.00,2013-11-12 10:30:00,
2013-11-12 04:45:00,59.2,55.7,30.19,NNE,22,1.0,3.0,88,0.00,,,0.00,0.00,VWS V14.00,2013-11-12 10:45:00,
2013-11-12 05:00:00,58.8,55.3,30.20,NNE,22,1.0,5.0,88,0.00,,,0.00,0.00,VWS V14.00,2013-11-12 11:00:00,
2013-11-12 05:15:00,59.4,55.5,30.20,North,0,2.0,6.0,87,0.00,,,0.00,0.00,VWS V14.00,2013-11-12 11:15:00,
2013-11-12 05:30:00,58.6,54.8,30.21,North,0,1.0,5.0,87,0.00,,,0.00,0.00,VWS V14.00,2013-11-12 11:30:00,
2013-11-12 05:35:00,58.6,54.8,30.21,North,0,1.0,5.0,87,0.00,,,0.00,0.00,VWS V14.00,2013-11-12 11:35:00,
2013-11-12 05:45:00,57.9,54.4,30.21,North,5,0.0,5.0,88,0.00,,,0.00,0.00,VWS V14.00,2013-11-12 11:45:00,
2013-11-12 06:00:00,57.3,54.1,30.22,North,0,1.0,7.0,89,0.00,,,0.00,0.00,VWS V14.00,2013-11-12 12:00:00,
2013-11-12 06:15:00,57.0,53.8,30.22,North,0,2.0,7.0,89,0.00,,,0.00,0.00,VWS V14.00,2013-11-12 12:15:00,
2013-11-12 06:30:00,56.9,54.0,30.22,North,0,3.0,9.0,90,0.00,,,0.00,0.00,VWS V14.00,2013-11-12 12:30:00,
2013-11-12 06:45:00,57.1,54.2,30.23,North,0,3.0,10.0,90,0.00,,,0.00,0.00,VWS V14.00,2013-11-12 12:45:00,
2013-11-12 07:00:00,57.6,54.4,30.23,North,0,4.0,7.0,89,0.00,,,0.00,2.00,VWS V14.00,2013-11-12 13:00:00,
2013-11-12 07:15:00,57.8,54.3,30.24,North,0,4.0,9.0,88,0.00,,,0.00,12.00,VWS V14.00,2013-11-12 13:15:00,
2013-11-12 07:30:00,58.4,54.9,30.25,North,0,4.0,12.0,88,0.00,,,0.00,27.00,VWS V14.00,2013-11-12 13:30:00,
2013-11-12 07:45:00,59.1,55.2,30.26,North,0,4.0,11.0,87,0.00,,,0.00,58.00,VWS V14.00,2013-11-12 13:45:00,
2013-11-12 08:00:00,60.3,56.1,30.27,NNE,22,4.0,11.0,86,0.00,,,0.00,154.00,VWS V14.00,2013-11-12 14:00:00,
2013-11-12 08:15:00,62.3,56.7,30.27,NNE,22,4.0,12.0,82,0.00,,,0.00,242.00,VWS V14.00,2013-11-12 14:15:00,
2013-11-12 08:30:00,63.0,56.4,30.27,North,0,4.0,10.0,79,0.00,,,0.00,218.00,VWS V14.00,2013-11-12 14:30:00,
2013-11-12 08:45:00,63.6,57.0,30.28,North,0,4.0,12.0,79,0.00,,,0.00,232.00,VWS V14.00,2013-11-12 14:45:00,
2013-11-12 09:00:00,64.0,57.0,30.28,North,0,4.0,10.0,78,0.00,,,0.00,242.00,VWS V14.00,2013-11-12 15:00:00,
2013-11-12 09:15:00,64.1,57.1,30.30,North,0,5.0,11.0,78,0.00,,,0.00,228.00,VWS V14.00,2013-11-12 15:15:00,
2013-11-12 09:30:00,64.9,57.2,30.30,North,0,5.0,14.0,76,0.00,,,0.00,268.00,VWS V14.00,2013-11-12 15:30:00,
2013-11-12 09:45:00,65.7,57.6,30.30,North,0,5.0,13.0,75,0.00,,,0.00,270.00,VWS V14.00,2013-11-12 15:45:00,
2013-11-12 10:00:00,66.6,57.7,30.30,North,0,5.0,13.0,73,0.00,,,0.00,327.00,VWS V14.00,2013-11-12 16:00:00,
2013-11-12 10:15:00,68.3,58.2,30.30,North,0,6.0,15.0,70,0.00,,,0.00,457.00,VWS V14.00,2013-11-12 16:15:00,
2013-11-12 10:30:00,68.7,57.3,30.30,North,0,6.0,17.0,67,0.00,,,0.00,336.00,VWS V14.00,2013-11-12 16:30:00,
2013-11-12 10:45:00,70.0,58.1,30.30,North,0,6.0,19.0,66,0.00,,,0.00,371.00,VWS V14.00,2013-11-12 16:45:00,
2013-11-12 11:00:00,71.1,58.3,30.30,North,0,7.0,19.0,64,0.00,,,0.00,519.00,VWS V14.00,2013-11-12 17:00:00,
2013-11-12 11:15:00,71.1,57.4,30.30,North,0,8.0,22.0,62,0.00,,,0.00,425.00,VWS V14.00,2013-11-12 17:15:00,
2013-11-12 11:30:00,71.4,57.3,30.29,North,0,8.0,23.0,61,0.00,,,0.00,457.00,VWS V14.00,2013-11-12 17:30:00,
2013-11-12 11:45:00,71.1,57.0,30.29,North,0,8.0,21.0,61,0.00,,,0.00,388.00,VWS V14.00,2013-11-12 17:45:00,
2013-11-12 12:00:00,71.1,57.0,30.28,NNE,22,10.0,21.0,61,0.00,,,0.00,437.00,VWS V14.00,2013-11-12 18:00:00,
2013-11-12 12:15:00,71.7,57.5,30.28,North,0,9.0,18.0,61,0.00,,,0.00,431.00,VWS V14.00,2013-11-12 18:15:00,
2013-11-12 12:30:00,71.7,57.1,30.28,North,0,9.0,22.0,60,0.00,,,0.00,407.00,VWS V14.00,2013-11-12 18:30:00,
2013-11-12 12:45:00,72.1,58.4,30.27,North,0,8.0,16.0,62,0.00,,,0.00,444.00,VWS V14.00,2013-11-12 18:45:00,
2013-11-12 13:00:00,72.2,57.6,30.27,North,0,7.0,22.0,60,0.00,,,0.00,459.00,VWS V14.00,2013-11-12 19:00:00,
2013-11-12 13:15:00,72.2,58.9,30.27,North,0,8.0,21.0,63,0.00,,,0.00,481.00,VWS V14.00,2013-11-12 19:15:00,
2013-11-12 13:30:00,71.6,59.7,30.28,North,0,9.0,24.0,66,0.00,,,0.00,520.00,VWS V14.00,2013-11-12 19:30:00,
2013-11-12 13:45:00,70.6,60.0,30.28,North,0,6.0,18.0,69,0.00,,,0.00,461.00,VWS V14.00,2013-11-12 19:45:00,
2013-11-12 14:00:00,68.9,59.1,30.29,North,0,7.0,19.0,71,0.00,,,0.00,364.00,VWS V14.00,2013-11-12 20:00:00,
2013-11-12 14:15:00,67.2,58.6,30.29,North,0,7.0,19.0,74,0.00,,,0.00,354.00,VWS V14.00,2013-11-12 20:15:00,
2013-11-12 14:24:00,67.2,58.6,30.29,North,0,7.0,19.0,74,0.00,,,0.00,354.00,VWS V14.00,2013-11-12 20:24:00,
2013-11-12 14:30:00,65.7,57.2,30.30,NNE,16,5.0,17.0,74,0.00,,,0.00,445.00,VWS V14.00,2013-11-12 20:30:00,
2013-11-12 14:45:00,64.3,56.6,30.31,North,0,8.0,21.0,76,0.00,,,0.00,320.00,VWS V14.00,2013-11-12 20:45:00,
2013-11-12 15:00:00,62.8,55.5,30.32,North,0,8.0,22.0,77,0.00,,,0.00,205.00,VWS V14.00,2013-11-12 21:00:00,
2013-11-12 15:15:00,61.4,54.8,30.31,North,0,7.0,20.0,79,0.00,,,0.00,95.00,VWS V14.00,2013-11-12 21:15:00,
2013-11-12 15:30:00,62.7,55.0,30.32,North,0,7.0,21.0,76,0.00,,,0.00,363.00,VWS V14.00,2013-11-12 21:30:00,
2013-11-12 15:45:00,61.9,54.3,30.32,North,0,7.0,18.0,76,0.00,,,0.00,323.00,VWS V14.00,2013-11-12 21:45:00,
2013-11-12 16:00:00,61.4,54.1,30.33,North,0,6.0,18.0,77,0.00,,,0.00,254.00,VWS V14.00,2013-11-12 22:00:00,
2013-11-12 16:15:00,60.7,53.5,30.33,North,0,8.0,24.0,77,0.00,,,0.00,160.00,VWS V14.00,2013-11-12 22:15:00,
2013-11-12 16:30:00,60.2,53.3,30.33,North,0,8.0,19.0,78,0.00,,,0.00,80.00,VWS V14.00,2013-11-12 22:30:00,
2013-11-12 16:45:00,59.5,53.0,30.34,North,0,7.0,16.0,79,0.00,,,0.00,65.00,VWS V14.00,2013-11-12 22:45:00,
2013-11-12 17:00:00,59.1,52.9,30.34,North,0,6.0,19.0,80,0.00,,,0.00,45.00,VWS V14.00,2013-11-12 23:00:00,
2013-11-12 17:15:00,58.7,52.6,30.34,North,0,6.0,17.0,80,0.00,,,0.00,27.00,VWS V14.00,2013-11-12 23:15:00,
2013-11-12 17:30:00,58.9,52.8,30.35,North,0,6.0,15.0,80,0.00,,,0.00,11.00,VWS V14.00,2013-11-12 23:30:00,
2013-11-12 17:45:00,59.2,53.0,30.36,North,0,5.0,14.0,80,0.00,,,0.00,0.00,VWS V14.00,2013-11-12 23:45:00,
2013-11-12 18:00:00,59.3,53.1,30.37,North,0,6.0,15.0,80,0.00,,,0.00,0.00,VWS V14.00,2013-11-13 00:00:00,
2013-11-12 18:15:00,59.3,52.8,30.38,North,0,7.0,16.0,79,0.00,,,0.00,0.00,VWS V14.00,2013-11-13 00:15:00,
2013-11-12 18:30:00,59.1,52.3,30.38,North,0,7.0,18.0,78,0.00,,,0.00,0.00,VWS V14.00,2013-11-13 00:30:00,
2013-11-12 18:45:00,58.9,52.1,30.40,North,0,5.0,17.0,78,0.00,,,0.00,0.00,VWS V14.00,2013-11-13 00:45:00,
2013-11-12 19:00:00,58.1,50.9,30.41,North,0,7.0,19.0,77,0.00,,,0.00,0.00,VWS V14.00,2013-11-13 01:00:00,
2013-11-12 19:15:00,57.6,50.5,30.41,North,0,7.0,19.0,77,0.00,,,0.00,0.00,VWS V14.00,2013-11-13 01:15:00,
2013-11-12 19:30:00,57.3,50.5,30.42,North,0,7.0,15.0,78,0.00,,,0.00,0.00,VWS V14.00,2013-11-13 01:30:00,
2013-11-12 19:45:00,57.1,50.3,30.43,North,0,8.0,19.0,78,0.00,,,0.00,0.00,VWS V14.00,2013-11-13 01:45:00,
2013-11-12 20:00:00,56.7,49.9,30.43,North,0,8.0,18.0,78,0.00,,,0.00,0.00,VWS V14.00,2013-11-13 02:00:00,
2013-11-12 20:15:00,56.7,49.6,30.44,North,0,8.0,19.0,77,0.00,,,0.00,0.00,VWS V14.00,2013-11-13 02:15:00,
2013-11-12 20:30:00,56.4,49.3,30.44,North,0,9.0,19.0,77,0.00,,,0.00,0.00,VWS V14.00,2013-11-13 02:30:00,
2013-11-12 20:45:00,56.2,49.4,30.45,North,0,8.0,18.0,78,0.00,,,0.00,0.00,VWS V14.00,2013-11-13 02:45:00,
2013-11-12 21:00:00,56.1,49.3,30.46,North,0,7.0,17.0,78,0.00,,,0.00,0.00,VWS V14.00,2013-11-13 03:00:00,
2013-11-12 21:15:00,56.0,49.2,30.47,North,0,7.0,15.0,78,0.00,,,0.00,0.00,VWS V14.00,2013-11-13 03:15:00,
2013-11-12 21:30:00,56.0,49.2,30.47,North,0,8.0,18.0,78,0.00,,,0.00,0.00,VWS V14.00,2013-11-13 03:30:00,
2013-11-12 21:45:00,55.9,48.8,30.47,North,0,8.0,20.0,77,0.00,,,0.00,0.00,VWS V14.00,2013-11-13 03:45:00,
2013-11-12 22:00:00,55.8,49.0,30.48,North,0,7.0,15.0,78,0.00,,,0.00,0.00,VWS V14.00,2013-11-13 04:00:00,
2013-11-12 22:15:00,55.4,48.7,30.48,North,0,8.0,19.0,78,0.00,,,0.00,0.00,VWS V14.00,2013-11-13 04:15:00,
2013-11-12 22:30:00,55.1,48.4,30.48,North,0,7.0,16.0,78,0.00,,,0.00,0.00,VWS V14.00,2013-11-13 04:30:00,
2013-11-12 22:45:00,54.4,48.0,30.48,North,0,6.0,13.0,79,0.00,,,0.00,0.00,VWS V14.00,2013-11-13 04:45:00,
2013-11-12 23:00:00,53.7,47.3,30.49,North,0,6.0,15.0,79,0.00,,,0.00,0.00,VWS V14.00,2013-11-13 05:00:00,
2013-11-12 23:15:00,53.2,46.9,30.49,North,0,6.0,13.0,79,0.00,,,0.00,0.00,VWS V14.00,2013-11-13 05:15:00,
2013-11-12 23:30:00,52.6,46.6,30.49,North,0,5.0,12.0,80,0.00,,,0.00,0.00,VWS V14.00,2013-11-13 05:30:00,
2013-11-12 23:45:00,52.1,46.1,30.48,North,0,5.0,10.0,80,0.00,,,0.00,0.00,VWS V14.00,2013-11-13 05:45:00,
2013-11-12 23:46:00,52.1,46.1,30.48,North,0,5.0,10.0,80,0.00,,,0.00,0.00,VWS V14.00,2013-11-13 05:46:00,